Terminal Aerodrome Forecast
Issued by NWS

Home | Current Version | Previous Version | Graphics & Text | Print | Product List | Glossary On
Versions: 1 2 3 4 5 6 7 8 9 10 11 12 13 14 15
000
FTUS43 KFGF 222335
TAFBJI
TAF
KBJI 222335Z 2300/2324 18005KT P6SM SCT050
     FM230200 VRB03KT P6SM FEW050
     FM230300 00000KT P6SM FEW250
     FM231400 13005KT P6SM FEW250
     FM231600 13007KT P6SM FEW050=

USA.gov is the U.S. government's official web portal to all federal, state and local government web resources and services.